Terminal Aerodrome Forecast
Issued by NWS

Home | Current Version | Previous Version | Graphics & Text | Print | Product List | Glossary On
Versions: 1 2 3 4 5 6 7 8 9 10 11 12 13 14 15 16 17
668
FTUS43 KICT 141123
TAFHUT
TAF
KHUT 141123Z 1412/1512 VRB04KT P6SM SKC
     FM141700 32011KT P6SM SCT250
     FM150000 VRB04KT P6SM SCT250
     FM150600 23005KT P6SM OVC100
     FM151000 27008KT P6SM BKN250=

USA.gov is the U.S. government's official web portal to all federal, state and local government web resources and services.